Terminal Aerodrome Forecast
Issued by NWS Louisville, KY

Home | Current Version | Previous Version | Text Only | Print | Product List | Glossary On
Versions: 1 2 3 4 5 6 7 8 9 10 11 12 13 14 15 16
000
FTUS43 KLMK 261700
TAFLEX
TAF
KLEX 261724Z 2618/2718 35011KT 4SM -SHRA BR BKN009 OVC015
     FM270000 35010KT P6SM BKN015
     FM270500 34005KT P6SM SCT020 BKN250
     FM271500 35006KT P6SM SCT025 BKN035=

USA.gov is the U.S. government's official web portal to all federal, state and local government web resources and services.